Time;durP1;ratioP1;P1;durP2;ratioP2;P2;SDS_P1;SDS_P2;PMS_P1;PMS_P2;Temp;Humidity;BMP_temperature;BMP_pressure;BME280_temperature;BME280_humidity;BME280_pressure;Samples;Min_cycle;Max_cycle;Signal;HPM_P1;HPM_P2
2023/03/21 00:01:43;;;;;;;40.78;18.60;;;;;;;9.11;100.00;101511.53;4922098;29;20662;-86
2023/03/21 00:04:08;;;;;;;38.50;17.63;;;;;;;9.16;100.00;101511.28;4909894;29;20036;-86
2023/03/21 00:06:35;;;;;;;40.72;19.77;;;;;;;9.21;100.00;101510.22;4907103;29;20097;-86
2023/03/21 00:09:00;;;;;;;42.13;19.63;;;;;;;9.19;100.00;101506.97;4925731;29;20028;-85
2023/03/21 00:11:26;;;;;;;38.78;19.25;;;;;;;9.09;100.00;101483.16;4925961;29;20042;-86
2023/03/21 00:13:52;;;;;;;46.20;19.88;;;;;;;9.19;100.00;101506.97;4909988;29;20036;-86
2023/03/21 00:16:18;;;;;;;38.60;19.50;;;;;;;9.18;100.00;101510.94;4902626;29;20032;-86
2023/03/21 00:18:51;;;;;;;43.05;18.73;;;;;;;9.21;100.00;101501.03;4926424;29;20099;-86
2023/03/21 00:21:18;;;;;;;42.53;19.83;;;;;;;9.05;100.00;101493.41;4924104;29;20032;-86
2023/03/21 00:23:45;;;;;;;38.03;18.10;;;;;;;9.07;100.00;101491.06;4902787;29;20051;-86
2023/03/21 00:26:11;;;;;;;38.88;18.42;;;;;;;9.22;100.00;101509.06;4909058;29;20127;-86
2023/03/21 00:28:38;;;;;;;38.65;17.95;;;;;;;9.01;100.00;101475.72;4923435;29;20512;-86
2023/03/21 00:31:04;;;;;;;38.70;17.52;;;;;;;9.16;100.00;101488.13;4922680;29;20039;-86
2023/03/21 00:33:30;;;;;;;40.80;18.52;;;;;;;9.11;100.00;101485.59;4917986;29;20035;-86
2023/03/21 00:35:56;;;;;;;36.92;18.40;;;;;;;9.06;100.00;101481.06;4919901;29;20032;-86
2023/03/21 00:38:22;;;;;;;32.55;16.65;;;;;;;9.16;100.00;101486.16;4905196;29;20370;-85
2023/03/21 00:40:48;;;;;;;37.45;16.75;;;;;;;9.11;100.00;101471.63;4922576;29;20039;-86
2023/03/21 00:43:16;;;;;;;35.50;18.10;;;;;;;9.24;100.00;101489.97;4906597;29;20031;-85
2023/03/21 00:45:42;;;;;;;40.05;19.10;;;;;;;9.21;100.00;101484.28;4914006;29;20595;-86
2023/03/21 00:48:08;;;;;;;36.92;17.63;;;;;;;9.22;100.00;101485.91;4927119;29;20034;-85
2023/03/21 00:50:33;;;;;;;34.63;17.00;;;;;;;9.27;100.00;101472.50;4906800;29;20039;-85
2023/03/21 00:52:59;;;;;;;34.00;16.98;;;;;;;9.24;100.00;101486.38;4922614;29;20020;-85
2023/03/21 00:55:25;;;;;;;36.03;17.10;;;;;;;9.16;100.00;101472.19;4908313;29;20521;-85
2023/03/21 00:57:50;;;;;;;33.97;16.90;;;;;;;9.20;100.00;101477.88;4900797;29;20066;-85
2023/03/21 01:00:16;;;;;;;34.83;17.98;;;;;;;9.15;100.00;101470.56;4904834;29;20118;-85
2023/03/21 01:02:55;;;;;;;36.70;17.50;;;;;;;9.23;100.00;101470.78;4899332;29;20039;-86
2023/03/21 01:08:15;;;;;;;30.55;16.42;;;;;;;9.19;100.00;101464.25;4921758;29;20670;-85
2023/03/21 01:10:43;;;;;;;31.55;14.93;;;;;;;9.14;100.00;101456.94;4906300;29;20043;-85
2023/03/21 01:13:11;;;;;;;31.13;15.32;;;;;;;9.16;100.00;101455.44;4903626;29;20142;-86
2023/03/21 01:15:43;;;;;;;32.13;15.43;;;;;;;9.14;100.00;101457.75;4898820;29;20035;-86
2023/03/21 01:18:08;;;;;;;30.00;15.70;;;;;;;9.14;100.00;101456.94;4885644;29;20044;-85
2023/03/21 01:20:34;;;;;;;33.63;15.73;;;;;;;9.18;100.00;101446.69;4907683;29;20048;-86
2023/03/21 01:22:59;;;;;;;31.23;15.45;;;;;;;9.21;100.00;101447.97;4914785;29;20027;-85
2023/03/21 01:25:25;;;;;;;31.35;14.82;;;;;;;9.12;100.00;101443.34;4910201;29;20110;-86
2023/03/21 01:27:50;;;;;;;34.40;16.83;;;;;;;9.19;100.00;101453.09;4909020;29;20449;-85
2023/03/21 01:30:16;;;;;;;31.40;15.13;;;;;;;9.15;100.00;101453.00;4917526;29;20122;-85
2023/03/21 01:32:42;;;;;;;31.15;14.48;;;;;;;9.09;100.00;101432.09;4925264;29;20027;-86
2023/03/21 01:35:07;;;;;;;28.08;15.13;;;;;;;9.12;100.00;101437.75;4908417;29;20063;-86
2023/03/21 01:37:33;;;;;;;28.77;14.23;;;;;;;9.13;100.00;101442.19;4918121;29;20063;-85
2023/03/21 01:39:58;;;;;;;31.35;14.85;;;;;;;9.09;100.00;101435.69;4902693;29;20106;-85
2023/03/21 01:42:24;;;;;;;30.20;14.18;;;;;;;9.10;100.00;101442.06;4909621;29;20059;-86
2023/03/21 01:44:58;;;;;;;30.00;14.23;;;;;;;9.06;100.00;101439.16;4905909;29;20032;-85
2023/03/21 01:47:24;;;;;;;28.20;13.60;;;;;;;9.14;100.00;101438.22;4902351;29;20043;-85
2023/03/21 01:49:55;;;;;;;29.55;14.32;;;;;;;9.13;100.00;101435.78;4902839;29;20517;-86
2023/03/21 01:52:25;;;;;;;27.13;13.95;;;;;;;9.15;100.00;101431.47;4917903;29;20040;-85
2023/03/21 01:54:54;;;;;;;27.73;13.23;;;;;;;9.09;100.00;101426.50;4901470;29;20496;-86
2023/03/21 01:57:31;;;;;;;24.85;13.07;;;;;;;9.19;100.00;101430.75;4900361;29;20078;-86
2023/03/21 02:00:01;;;;;;;29.23;13.38;;;;;;;9.21;100.00;101423.63;4916163;29;20715;-86
2023/03/21 02:02:30;;;;;;;26.35;13.73;;;;;;;9.20;100.00;101426.81;4918405;29;20036;-86
2023/03/21 02:05:01;;;;;;;26.77;12.02;;;;;;;9.14;100.00;101418.66;4918524;29;20421;-85
2023/03/21 02:07:34;;;;;;;27.75;13.48;;;;;;;9.20;100.00;101421.22;4897856;29;20038;-86
2023/03/21 02:10:03;;;;;;;24.55;13.15;;;;;;;9.11;100.00;101408.22;4920223;29;20482;-86
2023/03/21 02:12:30;;;;;;;26.80;13.63;;;;;;;9.12;100.00;101415.41;4917043;29;20130;-86
2023/03/21 02:14:56;;;;;;;30.40;13.25;;;;;;;9.03;100.00;101406.38;4916978;29;20036;-86
2023/03/21 02:17:25;;;;;;;24.67;13.68;;;;;;;9.06;100.00;101404.84;4905651;29;20042;-86
2023/03/21 02:20:20;;;;;;;25.70;13.98;;;;;;;9.00;100.00;101404.28;4908180;29;20035;-85
2023/03/21 02:23:11;;;;;;;20.85;12.15;;;;;;;9.03;100.00;101395.22;4901038;29;20435;-85
2023/03/21 02:26:05;;;;;;;27.98;13.90;;;;;;;8.96;100.00;101395.00;4922264;29;20436;-86
2023/03/21 02:28:44;;;;;;;24.15;13.95;;;;;;;9.04;100.00;101385.66;4906438;29;20032;-86
2023/03/21 02:31:31;;;;;;;25.20;13.70;;;;;;;8.99;100.00;101383.13;4919510;29;20047;-86
2023/03/21 02:34:15;;;;;;;27.98;13.68;;;;;;;8.94;100.00;101380.59;4929088;29;20537;-86
2023/03/21 02:37:05;;;;;;;25.55;13.43;;;;;;;8.95;100.00;101377.44;4927810;29;20510;-86
2023/03/21 02:39:48;;;;;;;23.08;13.07;;;;;;;9.12;100.00;101381.09;4923765;29;20189;-86
2023/03/21 02:42:14;;;;;;;24.15;13.98;;;;;;;9.03;100.00;101377.66;4925477;29;20608;-86
2023/03/21 02:44:50;;;;;;;23.50;13.15;;;;;;;9.02;100.00;101371.22;4928183;29;20118;-86
2023/03/21 02:47:29;;;;;;;24.38;12.77;;;;;;;9.09;100.00;101377.03;4921830;29;20066;-86
2023/03/21 02:49:57;;;;;;;27.40;14.52;;;;;;;9.04;100.00;101368.91;4921680;29;20059;-85
2023/03/21 02:52:27;;;;;;;25.10;12.57;;;;;;;9.07;100.00;101359.81;4924056;29;20063;-86
2023/03/21 02:54:55;;;;;;;24.88;13.65;;;;;;;9.14;100.00;101365.59;4924883;29;20063;-86
2023/03/21 02:57:21;;;;;;;29.30;14.90;;;;;;;9.17;100.00;101372.47;4906154;29;20526;-86
2023/03/21 02:59:49;;;;;;;23.90;14.43;;;;;;;9.08;100.00;101358.63;4924305;29;20122;-85
2023/03/21 03:02:16;;;;;;;25.15;13.40;;;;;;;9.12;100.00;101359.56;4901552;29;20150;-86
2023/03/21 03:04:41;;;;;;;24.52;13.90;;;;;;;9.18;100.00;101356.50;4925643;29;20068;-85
2023/03/21 03:07:35;;;;;;;24.80;13.23;;;;;;;9.14;100.00;101362.81;4920183;29;20508;-86
2023/03/21 03:10:26;;;;;;;26.55;14.65;;;;;;;9.08;100.00;101363.41;4922351;29;20338;-86
2023/03/21 03:13:04;;;;;;;27.65;14.43;;;;;;;9.04;100.00;101354.94;4921344;29;20035;-86
2023/03/21 03:15:50;;;;;;;28.33;15.32;;;;;;;9.03;100.00;101353.31;4921962;29;20038;-86
2023/03/21 03:18:26;;;;;;;25.52;14.55;;;;;;;9.06;100.00;101360.97;4904560;29;20850;-86
2023/03/21 03:20:59;;;;;;;25.05;13.75;;;;;;;9.02;100.00;101354.47;4916984;29;20122;-86
2023/03/21 03:23:47;;;;;;;22.67;13.63;;;;;;;8.94;100.00;101341.50;4909585;29;20046;-85
2023/03/21 03:26:28;;;;;;;24.92;13.55;;;;;;;9.04;100.00;101351.34;4913568;29;20453;-85
2023/03/21 03:29:00;;;;;;;27.10;15.73;;;;;;;8.93;100.00;101348.25;4925183;29;20389;-86
2023/03/21 03:31:40;;;;;;;31.30;16.17;;;;;;;8.90;100.00;101343.38;4923820;29;20035;-87
2023/03/21 03:34:09;;;;;;;29.83;16.45;;;;;;;9.04;100.00;101346.56;4920983;29;20042;-85
2023/03/21 03:36:40;;;;;;;26.33;14.77;;;;;;;8.99;100.00;101346.81;4918238;29;20402;-86
2023/03/21 03:39:10;;;;;;;28.92;16.40;;;;;;;8.93;100.00;101339.88;4921225;29;20477;-86
2023/03/21 03:41:57;;;;;;;27.45;17.58;;;;;;;8.95;100.00;101338.34;4923078;29;20533;-86
2023/03/21 03:44:22;;;;;;;29.40;15.52;;;;;;;8.92;100.00;101343.84;4918402;29;20059;-86
2023/03/21 03:47:00;;;;;;;31.88;16.95;;;;;;;8.94;100.00;101341.50;4919382;29;20035;-86
2023/03/21 03:49:32;;;;;;;32.40;17.02;;;;;;;8.97;100.00;101346.38;4923383;29;20143;-86
2023/03/21 03:52:09;;;;;;;31.17;17.58;;;;;;;9.01;100.00;101335.31;4920936;29;20032;-86
2023/03/21 03:54:44;;;;;;;37.50;19.42;;;;;;;9.01;100.00;101344.50;4917383;29;20069;-86
2023/03/21 03:57:12;;;;;;;32.88;18.23;;;;;;;9.02;100.00;101336.91;4919372;29;20510;-86
2023/03/21 03:59:40;;;;;;;33.88;18.83;;;;;;;9.05;100.00;101325.84;4917809;29;20150;-86
2023/03/21 04:02:06;;;;;;;37.03;19.75;;;;;;;9.00;100.00;101334.47;4914479;29;20027;-86
2023/03/21 04:04:31;;;;;;;38.67;21.40;;;;;;;8.88;100.00;101328.97;4918123;29;20027;-86
2023/03/21 04:06:57;;;;;;;37.00;20.58;;;;;;;9.02;100.00;101332.13;4897686;29;20032;-86
2023/03/21 04:09:23;;;;;;;41.22;21.55;;;;;;;9.08;100.00;101335.50;4913666;29;20401;-86
2023/03/21 04:11:49;;;;;;;44.72;23.38;;;;;;;8.89;100.00;101320.22;4913464;29;20031;-85
2023/03/21 04:14:14;;;;;;;41.30;21.95;;;;;;;8.91;100.00;101315.09;4906500;29;20058;-86
2023/03/21 04:16:40;;;;;;;43.60;22.80;;;;;;;9.05;100.00;101325.84;4904132;29;20616;-86
2023/03/21 04:19:05;;;;;;;44.03;23.35;;;;;;;8.99;100.00;101332.84;4887507;29;20035;-86
2023/03/21 04:21:31;;;;;;;45.63;22.83;;;;;;;8.91;100.00;101308.69;4907274;29;20111;-86
2023/03/21 04:23:57;;;;;;;41.40;22.67;;;;;;;8.97;100.00;101324.03;4895567;29;20031;-86
2023/03/21 04:26:23;;;;;;;44.47;22.95;;;;;;;9.13;100.00;101330.47;4913720;29;20288;-86
2023/03/21 04:28:49;;;;;;;50.65;24.45;;;;;;;9.02;100.00;101326.56;4896547;29;20032;-85
2023/03/21 04:31:16;;;;;;;42.22;22.80;;;;;;;8.93;100.00;101323.91;4909423;29;20581;-86
2023/03/21 04:33:42;;;;;;;49.35;24.33;;;;;;;8.98;100.00;101325.66;4896462;29;20130;-86
2023/03/21 04:36:17;;;;;;;47.83;22.33;;;;;;;8.99;100.00;101335.66;4897460;29;20036;-85
2023/03/21 04:38:47;;;;;;;48.15;24.80;;;;;;;8.97;100.00;101318.44;4910584;29;20655;-86
2023/03/21 04:41:12;;;;;;;50.38;24.98;;;;;;;8.99;100.00;101315.31;4913039;29;20039;-86
2023/03/21 04:43:38;;;;;;;53.97;23.75;;;;;;;8.95;100.00;101304.84;4892143;29;20031;-86
2023/03/21 04:46:03;;;;;;;51.05;24.52;;;;;;;8.95;100.00;101316.00;4895038;29;20039;-86
2023/03/21 04:48:29;;;;;;;51.28;24.00;;;;;;;8.92;100.00;101307.53;4895494;29;21686;-86
2023/03/21 04:50:54;;;;;;;51.58;23.98;;;;;;;8.95;100.00;101312.41;4898344;29;20030;-86
2023/03/21 04:53:20;;;;;;;44.63;23.17;;;;;;;8.99;100.00;101301.34;4908082;29;20032;-86
2023/03/21 04:55:45;;;;;;;48.03;23.55;;;;;;;9.01;100.00;101305.41;4891761;29;21484;-85
2023/03/21 04:58:10;;;;;;;50.05;22.40;;;;;;;8.97;100.00;101296.09;4887678;29;20036;-86
2023/03/21 05:00:37;;;;;;;44.55;23.17;;;;;;;9.04;100.00;101301.88;4903109;29;20038;-85
2023/03/21 05:03:07;;;;;;;50.05;24.65;;;;;;;8.99;100.00;101307.72;4913915;29;20122;-85
2023/03/21 05:05:36;;;;;;;48.70;23.88;;;;;;;8.98;100.00;101303.31;4903988;29;20042;-86
2023/03/21 05:08:03;;;;;;;45.35;24.75;;;;;;;8.92;100.00;101307.53;4887212;29;20047;-86
2023/03/21 05:10:28;;;;;;;41.97;21.80;;;;;;;8.97;100.00;101300.88;4889676;29;20040;-86
2023/03/21 05:12:53;;;;;;;45.47;22.40;;;;;;;8.89;100.00;101294.28;4901285;29;20404;-86
2023/03/21 05:15:19;;;;;;;39.75;21.38;;;;;;;8.86;100.00;101293.03;4900765;29;20431;-87
2023/03/21 05:17:47;;;;;;;46.47;23.05;;;;;;;8.90;100.00;101295.91;4884984;29;20113;-86
2023/03/21 05:20:14;;;;;;;41.60;21.73;;;;;;;8.93;100.00;101309.16;4906927;29;20023;-87
2023/03/21 05:22:40;;;;;;;40.78;20.27;;;;;;;8.88;100.00;101298.25;4891085;29;20027;-87
2023/03/21 05:25:07;;;;;;;40.95;22.05;;;;;;;8.91;100.00;101303.13;4895204;29;20035;-87
2023/03/21 05:27:34;;;;;;;33.85;18.35;;;;;;;8.85;100.00;101298.94;4898886;29;20082;-87
2023/03/21 05:30:11;;;;;;;38.22;18.70;;;;;;;8.95;100.00;101310.41;4890543;29;20031;-88
2023/03/21 05:32:36;;;;;;;38.28;19.48;;;;;;;8.83;100.00;101295.72;4895817;29;20713;-88
2023/03/21 05:35:03;;;;;;;34.70;17.58;;;;;;;8.82;100.00;101294.91;4904199;29;20038;-88
2023/03/21 05:37:28;;;;;;;36.35;17.88;;;;;;;8.80;100.00;101300.03;4904004;29;20582;-88
2023/03/21 05:39:54;;;;;;;36.88;17.23;;;;;;;8.83;100.00;101295.72;4905680;29;20041;-88
2023/03/21 05:42:19;;;;;;;34.83;17.55;;;;;;;8.84;100.00;101303.72;4899603;29;20482;-88
2023/03/21 05:44:45;;;;;;;27.02;15.82;;;;;;;8.83;100.00;101302.09;4919756;29;20035;-89
2023/03/21 05:47:12;;;;;;;26.15;14.52;;;;;;;8.79;100.00;101290.03;4920194;29;20138;-91
2023/03/21 05:49:37;;;;;;;28.48;14.07;;;;;;;8.86;100.00;101297.81;4922247;29;20055;-92
2023/03/21 05:52:03;;;;;;;31.10;14.38;;;;;;;8.81;100.00;101300.81;4911023;29;20596;-92
2023/03/21 05:54:28;;;;;;;27.23;14.70;;;;;;;8.73;100.00;101300.63;4910813;29;20054;-93
2023/03/21 05:56:54;;;;;;;29.58;14.02;;;;;;;8.88;100.00;101301.84;4909631;29;20035;-93
2023/03/21 05:59:20;;;;;;;29.27;14.75;;;;;;;8.85;100.00;101310.13;4907968;29;20036;-93
2023/03/21 06:01:45;;;;;;;33.72;15.27;;;;;;;8.77;100.00;101305.50;4922902;29;20043;-93
2023/03/21 06:04:14;;;;;;;30.08;15.93;;;;;;;8.74;100.00;101304.25;4908573;29;21077;-93
2023/03/21 06:06:39;;;;;;;33.47;15.93;;;;;;;8.77;100.00;101308.28;4926411;29;20031;-95
2023/03/21 06:09:05;;;;;;;29.25;14.52;;;;;;;8.75;100.00;101301.09;4907322;29;20480;-94
2023/03/21 06:11:34;;;;;;;32.28;16.83;;;;;;;8.78;100.00;101304.34;4906900;29;20032;-94
2023/03/21 06:14:00;;;;;;;32.42;16.90;;;;;;;8.73;100.00;101306.22;4922181;29;20474;-94
2023/03/21 06:16:27;;;;;;;35.35;18.40;;;;;;;8.67;100.00;101293.69;4907763;29;20039;-94
2023/03/21 06:18:53;;;;;;;37.20;18.83;;;;;;;8.60;100.00;101287.91;4926850;29;20038;-96
2023/03/21 06:21:18;;;;;;;39.90;19.23;;;;;;;8.59;100.00;101282.69;4925111;29;20020;-94
2023/03/21 06:23:44;;;;;;;37.08;20.08;;;;;;;8.63;100.00;101286.38;4929231;29;20068;-96
2023/03/21 06:26:09;;;;;;;33.90;18.25;;;;;;;8.57;100.00;101283.03;4926490;29;20497;-96
2023/03/21 06:28:35;;;;;;;40.78;18.75;;;;;;;8.60;100.00;101279.53;4930298;29;20043;-96
2023/03/21 06:31:00;;;;;;;38.03;20.05;;;;;;;8.70;100.00;101304.13;4916542;29;20035;-96
2023/03/21 06:33:25;;;;;;;40.00;21.17;;;;;;;8.72;100.00;101287.03;4914985;29;20039;-96
2023/03/21 06:35:56;;;;;;;35.97;19.70;;;;;;;8.72;100.00;101296.22;4940857;29;20027;-96
2023/03/21 06:38:22;;;;;;;36.85;18.70;;;;;;;8.69;100.00;101294.13;4922124;29;20508;-95
2023/03/21 06:40:48;;;;;;;46.03;20.38;;;;;;;8.61;100.00;101286.72;4931846;29;20036;-96
2023/03/21 06:43:15;;;;;;;38.10;21.35;;;;;;;8.64;100.00;101288.78;4929901;29;20091;-95
2023/03/21 06:45:40;;;;;;;39.08;19.88;;;;;;;8.71;100.00;101299.38;4935251;29;20107;-96
2023/03/21 06:48:06;;;;;;;37.58;20.20;;;;;;;8.73;100.00;101303.44;4929426;29;20587;-95
2023/03/21 06:50:32;;;;;;;39.15;20.77;;;;;;;8.60;100.00;101287.91;4932777;29;20042;-96
2023/03/21 06:52:58;;;;;;;39.78;19.10;;;;;;;8.54;100.00;101278.16;4927894;29;20091;-94
2023/03/21 06:55:25;;;;;;;37.40;18.48;;;;;;;8.63;100.00;101295.56;4911145;29;20047;-91
2023/03/21 06:57:56;;;;;;;43.53;19.73;;;;;;;8.59;100.00;101280.69;4906791;29;20074;-94
2023/03/21 07:00:22;;;;;;;41.45;16.77;;;;;;;9.71;100.00;101312.41;4912070;29;20043;-78
2023/03/21 07:02:48;;;;;;;34.80;17.58;;;;;;;9.48;100.00;101310.22;4914040;29;20648;-85
2023/03/21 07:05:15;;;;;;;33.50;19.13;;;;;;;9.25;100.00;101317.59;4889702;29;20782;-85
2023/03/21 07:07:41;;;;;;;32.15;17.38;;;;;;;9.12;100.00;101303.69;4898844;29;20032;-86
2023/03/21 07:10:08;;;;;;;37.35;17.02;;;;;;;9.08;100.00;101319.53;4917822;29;20047;-82
2023/03/21 07:12:34;;;;;;;35.35;17.55;;;;;;;9.09;100.00;101318.38;4924303;29;20398;-81
2023/03/21 07:15:03;;;;;;;41.42;17.77;;;;;;;9.02;100.00;101315.38;4926832;29;20482;-82
2023/03/21 07:17:30;;;;;;;35.10;19.23;;;;;;;8.98;100.00;101317.28;4922435;29;20036;-81
2023/03/21 07:19:55;;;;;;;39.60;21.05;;;;;;;8.99;100.00;101316.09;4910524;29;20114;-82
2023/03/21 07:22:20;;;;;;;39.15;19.38;;;;;;;9.09;100.00;101317.59;4915301;29;20492;-83
2023/03/21 07:24:49;;;;;;;34.38;19.02;;;;;;;8.99;100.00;101310.53;4934873;29;20111;-83
2023/03/21 07:27:15;;;;;;;37.13;20.73;;;;;;;9.09;100.00;101309.22;4931273;29;20039;-82
2023/03/21 07:29:40;;;;;;;42.20;20.80;;;;;;;9.06;100.00;101305.13;4934575;29;20035;-82
2023/03/21 07:32:06;;;;;;;48.95;21.75;;;;;;;9.03;100.00;101314.22;4938249;29;20394;-82
2023/03/21 07:34:32;;;;;;;33.33;19.02;;;;;;;9.02;100.00;101309.78;4934722;29;20051;-82
2023/03/21 07:36:59;;;;;;;37.05;16.50;;;;;;;8.99;100.00;101306.94;4920423;29;20039;-82
2023/03/21 07:39:25;;;;;;;36.67;19.10;;;;;;;9.11;100.00;101306.88;4930125;29;20078;-81
2023/03/21 07:41:50;;;;;;;40.40;18.17;;;;;;;9.03;100.00;101308.66;4927267;29;20558;-82
2023/03/21 07:44:16;;;;;;;34.83;19.08;;;;;;;9.06;100.00;101305.13;4931809;29;20107;-82
2023/03/21 07:46:41;;;;;;;40.03;18.42;;;;;;;9.05;100.00;101320.28;4917235;29;20095;-81
2023/03/21 07:49:07;;;;;;;37.70;17.60;;;;;;;9.10;100.00;101317.19;4908983;29;20059;-82
2023/03/21 07:51:34;;;;;;;38.92;18.25;;;;;;;9.10;100.00;101310.81;4928401;29;20040;-81
2023/03/21 07:54:00;;;;;;;40.13;18.55;;;;;;;9.08;100.00;101310.34;4930591;29;20023;-82
2023/03/21 07:56:27;;;;;;;46.25;19.65;;;;;;;8.99;100.00;101316.09;4927189;29;20134;-82
2023/03/21 07:58:52;;;;;;;36.85;18.25;;;;;;;9.01;100.00;101313.78;4927337;29;20470;-82
2023/03/21 08:01:18;;;;;;;37.10;18.02;;;;;;;9.02;100.00;101312.59;4920123;29;20051;-82
2023/03/21 08:03:43;;;;;;;47.88;20.10;;;;;;;9.02;100.00;101314.56;4924805;29;20035;-82
2023/03/21 08:06:09;;;;;;;39.50;17.58;;;;;;;8.99;100.00;101309.72;4917338;29;20032;-82
2023/03/21 08:08:34;;;;;;;35.88;17.98;;;;;;;9.07;100.00;101300.38;4912695;29;20080;-82
2023/03/21 08:10:59;;;;;;;33.75;17.58;;;;;;;9.07;100.00;101305.97;4917086;29;20118;-83
2023/03/21 08:13:25;;;;;;;35.13;18.15;;;;;;;9.13;100.00;101302.53;4931614;29;20090;-82
2023/03/21 08:15:50;;;;;;;39.85;18.83;;;;;;;9.10;100.00;101306.03;4914208;29;20034;-82
2023/03/21 08:18:16;;;;;;;35.72;18.42;;;;;;;9.10;100.00;101311.63;4932247;29;20039;-82
2023/03/21 08:20:41;;;;;;;36.58;18.20;;;;;;;9.09;100.00;101303.63;4935249;29;20872;-83
2023/03/21 08:23:07;;;;;;;35.63;17.02;;;;;;;9.16;100.00;101304.59;4912443;29;20728;-82
2023/03/21 08:25:33;;;;;;;31.00;16.65;;;;;;;9.15;100.00;101303.00;4926338;29;20078;-82
2023/03/21 08:27:58;;;;;;;39.25;18.02;;;;;;;9.18;100.00;101307.06;4935336;29;20035;-83
2023/03/21 08:30:26;;;;;;;35.35;16.65;;;;;;;9.15;100.00;101297.41;4933395;29;20414;-83
2023/03/21 08:32:56;;;;;;;39.90;17.52;;;;;;;9.12;100.00;101300.91;4909978;29;20051;-84
2023/03/21 08:35:22;;;;;;;31.77;15.43;;;;;;;9.09;100.00;101293.25;4933258;29;20027;-84
2023/03/21 08:37:47;;;;;;;34.45;18.48;;;;;;;9.19;100.00;101293.88;4929535;29;20158;-84
2023/03/21 08:40:16;;;;;;;37.47;17.75;;;;;;;9.07;100.00;101290.00;4925817;29;20036;-83
2023/03/21 08:42:43;;;;;;;34.75;17.23;;;;;;;9.12;100.00;101295.31;4917857;29;20031;-83
2023/03/21 08:45:09;;;;;;;39.53;18.15;;;;;;;9.16;100.00;101295.41;4917746;29;20569;-84
2023/03/21 08:47:35;;;;;;;40.38;19.40;;;;;;;9.19;100.00;101291.09;4935218;29;20043;-85
2023/03/21 08:50:00;;;;;;;34.90;18.23;;;;;;;9.21;100.00;101288.75;4930982;29;20047;-84
2023/03/21 08:52:26;;;;;;;34.63;17.30;;;;;;;9.22;100.00;101291.19;4929192;29;20023;-84
2023/03/21 08:54:52;;;;;;;37.00;17.25;;;;;;;9.15;100.00;101286.25;4913982;29;20494;-83
2023/03/21 08:57:17;;;;;;;38.78;17.90;;;;;;;9.21;100.00;101285.97;4915334;29;20490;-84
2023/03/21 08:59:43;;;;;;;43.00;17.60;;;;;;;9.22;100.00;101290.41;4910928;29;20031;-84
2023/03/21 09:02:12;;;;;;;33.92;17.27;;;;;;;9.21;100.00;101275.59;4911841;29;20039;-83
2023/03/21 09:04:37;;;;;;;43.38;17.17;;;;;;;9.26;100.00;101275.34;4933973;29;20036;-84
2023/03/21 09:07:04;;;;;;;30.85;15.73;;;;;;;9.32;100.00;101279.50;4922620;29;20036;-84
2023/03/21 09:09:29;;;;;;;33.85;15.40;;;;;;;9.34;100.00;101276.34;4911578;29;20028;-83
2023/03/21 09:11:55;;;;;;;30.13;15.80;;;;;;;9.35;100.00;101278.75;4915017;29;20050;-82
2023/03/21 09:14:20;;;;;;;34.30;15.32;;;;;;;9.43;100.00;101274.19;4943412;29;20067;-83
2023/03/21 09:16:46;;;;;;;40.35;18.25;;;;;;;9.44;100.00;101272.19;4932685;29;20046;-82
2023/03/21 09:19:11;;;;;;;39.47;18.75;;;;;;;9.51;100.00;101275.19;4933710;29;20066;-82
2023/03/21 09:21:37;;;;;;;31.15;14.23;;;;;;;9.45;100.00;101271.84;4934228;29;20199;-82
2023/03/21 09:24:05;;;;;;;29.77;16.73;;;;;;;9.44;100.00;101264.59;4915239;29;20031;-82
2023/03/21 09:26:30;;;;;;;34.80;16.30;;;;;;;9.38;100.00;101266.06;4929377;29;20079;-82
2023/03/21 09:28:57;;;;;;;36.60;15.73;;;;;;;9.44;100.00;101270.19;4927558;29;20094;-82
2023/03/21 09:31:23;;;;;;;33.83;14.88;;;;;;;9.52;100.00;101254.44;4927668;29;20052;-82
2023/03/21 09:33:50;;;;;;;33.03;16.27;;;;;;;9.60;100.00;101256.22;4915255;29;20043;-82
2023/03/21 09:36:19;;;;;;;36.78;15.57;;;;;;;9.65;100.00;101252.34;4926595;29;20031;-82
2023/03/21 09:38:46;;;;;;;35.17;17.33;;;;;;;9.59;100.00;101251.00;4910112;29;20106;-82
2023/03/21 09:41:32;;;;;;;33.15;15.63;;;;;;;9.68;100.00;101257.22;4921586;28;20477;-82
2023/03/21 09:44:24;;;;;;;31.08;14.35;;;;;;;9.67;100.00;101256.41;4923090;29;20032;-82
2023/03/21 09:47:08;;;;;;;28.25;12.80;;;;;;;9.73;100.00;101248.56;4913545;29;20517;-82
2023/03/21 09:49:39;;;;;;;31.52;15.93;;;;;;;9.69;100.00;101253.25;4924832;29;20110;-82
2023/03/21 09:52:16;;;;;;;24.88;13.63;;;;;;;9.62;100.00;101247.50;4922417;29;21583;-82
2023/03/21 09:54:43;;;;;;;35.90;16.02;;;;;;;9.65;100.00;101247.56;4926331;29;20058;-82
2023/03/21 09:57:36;;;;;;;36.00;16.48;;;;;;;9.65;100.00;101243.97;4929029;29;20036;-82
2023/03/21 10:00:15;;;;;;;32.30;14.93;;;;;;;9.64;100.00;101247.94;4921722;29;20035;-82
2023/03/21 10:02:48;;;;;;;33.47;15.27;;;;;;;9.64;100.00;101234.78;4925600;29;20059;-82
2023/03/21 10:05:20;;;;;;;36.33;15.80;;;;;;;9.67;100.00;101228.44;4922252;29;20083;-82
2023/03/21 10:07:57;;;;;;;34.22;15.88;;;;;;;9.69;100.00;101216.91;4919911;29;20512;-82
2023/03/21 10:10:35;;;;;;;31.02;14.93;;;;;;;9.74;100.00;101223.03;4920790;29;20069;-82
2023/03/21 10:13:02;;;;;;;30.10;14.15;;;;;;;9.75;100.00;101216.25;4922986;29;20058;-82
2023/03/21 10:15:27;;;;;;;32.83;14.75;;;;;;;9.76;100.00;101217.06;4924107;29;20058;-82
2023/03/21 10:18:00;;;;;;;33.15;16.15;;;;;;;9.83;100.00;101214.44;4906205;29;20478;-81
2023/03/21 10:20:37;;;;;;;25.52;13.20;;;;;;;9.75;100.00;101207.88;4926328;29;20050;-82
2023/03/21 10:23:11;;;;;;;27.05;13.80;;;;;;;9.89;100.00;101209.38;4906745;29;20032;-82
2023/03/21 10:25:44;;;;;;;23.23;13.80;;;;;;;9.87;100.00;101217.34;4929424;29;20040;-82
2023/03/21 10:28:17;;;;;;;36.17;14.55;;;;;;;9.89;100.00;101213.00;4927837;29;20034;-81
2023/03/21 10:30:45;;;;;;;;;;;;;;;9.89;100.00;101201.81;4927319;29;20122;-81
2023/03/21 10:33:14;;;;;;;24.02;12.93;;;;;;;9.94;100.00;101201.50;4928618;29;19927;-82
2023/03/21 10:35:45;;;;;;;32.05;14.38;;;;;;;9.98;100.00;101202.41;4927897;29;20050;-82
2023/03/21 10:38:16;;;;;;;26.92;14.32;;;;;;;10.04;100.00;101190.94;4926640;29;20135;-81
2023/03/21 10:40:42;;;;;;;24.17;12.48;;;;;;;10.06;100.00;101188.59;4924281;29;20031;-81
2023/03/21 10:43:33;;;;;;;28.52;13.90;;;;;;;10.10;100.00;101200.66;4922113;29;20401;-81
2023/03/21 10:46:12;;;;;;;26.60;12.48;;;;;;;10.18;100.00;101188.41;4928074;29;20032;-83
2023/03/21 10:48:40;;;;;;;30.58;15.45;;;;;;;10.24;100.00;101184.16;4925486;29;20043;-82
2023/03/21 10:51:08;;;;;;;24.40;12.15;;;;;;;10.29;100.00;101185.88;4908620;29;20561;-81
2023/03/21 10:53:46;;;;;;;24.65;12.40;;;;;;;10.24;100.00;101178.56;4932866;29;20067;-82
2023/03/21 10:56:11;;;;;;;29.23;12.45;;;;;;;10.32;100.00;101177.56;4919060;29;20045;-81
2023/03/21 10:58:44;;;;;;;22.80;12.13;;;;;;;10.35;100.00;101179.63;4933775;29;20394;-82
2023/03/21 11:01:14;;;;;;;24.23;11.07;;;;;;;10.43;100.00;101179.75;4929121;29;20028;-81
2023/03/21 11:03:45;;;;;;;23.05;12.35;;;;;;;10.44;100.00;101175.81;4927822;29;20067;-80
2023/03/21 11:06:16;;;;;;;22.75;11.02;;;;;;;10.51;100.00;101173.94;4926415;29;20032;-81
2023/03/21 11:08:49;;;;;;;24.08;11.88;;;;;;;10.61;100.00;101177.31;4908293;29;20047;-82
2023/03/21 11:11:26;;;;;;;28.42;10.50;;;;;;;10.64;100.00;101176.56;4917834;29;20023;-82
2023/03/21 11:14:05;;;;;;;27.17;11.02;;;;;;;10.71;100.00;101174.72;4907919;29;20390;-82
2023/03/21 11:16:35;;;;;;;20.95;11.18;;;;;;;10.72;100.00;101169.94;4930393;29;20170;-82
2023/03/21 11:19:13;;;;;;;19.13;11.10;;;;;;;10.70;100.00;101161.88;4927090;29;20071;-81
2023/03/21 11:21:39;;;;;;;19.27;11.05;;;;;;;10.74;100.00;101145.97;4931229;29;20039;-82